createdAt,value
2022-07-29T00:01:53.434Z,2.20
2022-07-29T00:06:54.966Z,2.22
2022-07-29T00:12:00.501Z,2.03
2022-07-29T00:17:02.062Z,1.92
2022-07-29T00:22:03.688Z,2.00
2022-07-29T00:27:05.193Z,2.03
2022-07-29T00:32:07.057Z,2.20
2022-07-29T00:37:08.624Z,2.10
2022-07-29T00:42:10.668Z,1.80
2022-07-29T00:47:12.781Z,2.15
2022-07-29T00:52:17.060Z,2.20
2022-07-29T00:57:19.083Z,2.25
2022-07-29T01:02:20.633Z,2.20
2022-07-29T01:07:22.192Z,1.92
2022-07-29T01:12:29.420Z,1.83
2022-07-29T01:17:39.990Z,1.90
2022-07-29T01:23:16.408Z,2.28
2022-07-29T01:28:36.611Z,1.80
2022-07-29T01:33:50.668Z,1.98
2022-07-29T01:39:09.637Z,2.40
2022-07-29T01:44:26.110Z,2.00
2022-07-29T01:49:36.529Z,2.17
2022-07-29T01:54:46.631Z,2.08
2022-07-29T01:59:50.687Z,2.08
2022-07-29T02:04:54.561Z,2.45
2022-07-29T02:09:57.737Z,2.20
2022-07-29T02:15:02.606Z,2.05
2022-07-29T02:20:05.930Z,2.15
2022-07-29T02:25:13.752Z,1.83
2022-07-29T02:30:16.080Z,2.13
2022-07-29T02:35:18.085Z,1.95
2022-07-29T02:40:19.724Z,1.88
2022-07-29T02:45:21.803Z,1.83
2022-07-29T02:50:46.616Z,2.00
2022-07-29T02:55:56.965Z,2.33
2022-07-29T03:01:02.304Z,2.22
2022-07-29T03:06:05.549Z,1.80
2022-07-29T03:11:09.244Z,1.58
2022-07-29T03:16:11.299Z,1.80
2022-07-29T03:21:13.003Z,1.73
2022-07-29T03:26:14.554Z,1.70
2022-07-29T03:31:16.161Z,2.10
2022-07-29T03:36:17.768Z,1.92
2022-07-29T03:41:22.538Z,1.60
2022-07-29T03:46:27.477Z,1.75
2022-07-29T03:51:33.295Z,1.67
2022-07-29T03:56:40.474Z,1.88
2022-07-29T04:01:43.444Z,1.50
2022-07-29T04:06:46.416Z,1.85
2022-07-29T04:12:01.930Z,2.00
2022-07-29T04:17:06.020Z,1.70
2022-07-29T04:22:07.609Z,1.80
2022-07-29T04:27:09.131Z,2.15
2022-07-29T04:32:10.633Z,2.20
2022-07-29T04:37:12.285Z,2.13
2022-07-29T04:42:13.841Z,2.50
2022-07-29T04:47:15.377Z,2.30
2022-07-29T04:52:16.910Z,2.15
2022-07-29T04:57:18.622Z,2.05
2022-07-29T05:02:20.236Z,2.13
2022-07-29T05:07:21.875Z,2.35
2022-07-29T05:12:24.857Z,1.90
2022-07-29T05:17:26.437Z,1.98
2022-07-29T05:22:28.007Z,1.73
2022-07-29T05:27:29.548Z,1.95
2022-07-29T05:32:31.086Z,2.08
2022-07-29T05:37:32.586Z,1.80
2022-07-29T05:42:34.871Z,2.20
2022-07-29T05:47:36.421Z,1.58
2022-07-29T05:52:37.930Z,1.90
2022-07-29T05:57:39.649Z,1.88
2022-07-29T06:02:41.226Z,2.03
2022-07-29T06:07:50.130Z,2.08
2022-07-29T06:12:53.638Z,2.30
2022-07-29T06:18:00.790Z,1.95
2022-07-29T06:23:05.381Z,2.17
2022-07-29T06:28:07.299Z,2.13
2022-07-29T06:33:09.267Z,2.10
2022-07-29T06:38:30.107Z,2.00
2022-07-29T06:43:50.381Z,1.92
2022-07-29T06:53:59.322Z,2.30
2022-07-29T06:59:05.385Z,2.22
2022-07-29T07:04:09.387Z,2.38
2022-07-29T07:09:10.946Z,2.63
2022-07-29T07:14:12.486Z,2.63
2022-07-29T07:19:14.173Z,2.42
2022-07-29T07:24:16.262Z,2.40
2022-07-29T07:29:18.294Z,2.55
2022-07-29T07:37:07.460Z,1.88
2022-07-29T07:42:11.300Z,2.33
2022-07-29T07:47:20.694Z,2.92
2022-07-29T07:52:24.110Z,2.03
2022-07-29T07:57:25.737Z,2.40
2022-07-29T08:02:27.596Z,2.60
2022-07-29T08:07:30.673Z,2.20
2022-07-29T08:12:32.172Z,2.70
2022-07-29T08:17:35.525Z,2.10
2022-07-29T08:22:37.196Z,2.10
2022-07-29T08:27:43.878Z,2.17
2022-07-29T08:32:54.474Z,2.60
2022-07-29T08:37:57.868Z,2.05
2022-07-29T08:43:06.573Z,2.13
2022-07-29T08:48:08.327Z,2.22
2022-07-29T08:53:13.681Z,2.13
2022-07-29T08:58:16.193Z,1.92
2022-07-29T09:03:24.651Z,2.30
2022-07-29T09:08:27.207Z,2.28
2022-07-29T09:13:28.778Z,1.67
2022-07-29T09:18:42.236Z,1.77
2022-07-29T09:24:07.741Z,2.15
2022-07-29T09:29:15.948Z,1.85
2022-07-29T09:34:23.322Z,4.25
2022-07-29T09:39:48.067Z,1.90
2022-07-29T09:44:59.018Z,1.83
2022-07-29T09:50:20.702Z,2.00
2022-07-29T09:55:22.465Z,2.17
2022-07-29T10:01:30.956Z,2.10
2022-07-29T10:06:36.745Z,2.50
2022-07-29T10:12:11.814Z,2.00
2022-07-29T10:17:27.327Z,2.35
2022-07-29T10:22:52.361Z,2.70
2022-07-29T10:27:55.811Z,3.60
2022-07-29T10:33:03.077Z,2.58
2022-07-29T10:38:17.471Z,2.78
2022-07-29T10:43:25.133Z,2.55
2022-07-29T10:48:27.119Z,2.25
2022-07-29T10:53:51.436Z,2.00
2022-07-29T11:00:09.397Z,1.88
2022-07-29T11:05:14.019Z,2.20
2022-07-29T11:10:16.445Z,2.28
2022-07-29T11:15:21.986Z,2.33
2022-07-29T11:26:10.757Z,2.20
2022-07-29T11:37:28.334Z,2.22
2022-07-29T11:42:34.544Z,1.95
2022-07-29T11:48:31.767Z,2.10
2022-07-29T11:53:28.690Z,1.98
2022-07-29T11:58:33.919Z,2.13
2022-07-29T12:03:36.820Z,2.55
2022-07-29T12:08:46.084Z,2.15
2022-07-29T12:13:50.591Z,1.65
2022-07-29T12:18:59.968Z,1.80
2022-07-29T12:24:09.318Z,2.03
2022-07-29T12:29:20.495Z,2.08
2022-07-29T12:34:37.273Z,1.83
2022-07-29T12:39:39.956Z,1.73
2022-07-29T12:44:46.192Z,1.70
2022-07-29T12:49:49.374Z,1.70
2022-07-29T12:54:50.972Z,1.73
2022-07-29T13:00:13.569Z,1.75
2022-07-29T13:05:15.575Z,1.60
2022-07-29T13:10:22.092Z,2.00
2022-07-29T13:15:26.819Z,1.50
2022-07-29T13:20:35.757Z,1.70
2022-07-29T13:25:42.206Z,1.55
2022-07-29T13:30:44.846Z,1.27
2022-07-29T13:35:46.669Z,1.60
2022-07-29T13:40:48.655Z,1.40
2022-07-29T13:45:50.331Z,1.42
2022-07-29T13:50:51.958Z,1.20
2022-07-29T13:55:54.117Z,1.40
2022-07-29T14:00:57.784Z,1.35
2022-07-29T14:06:00.903Z,1.67
2022-07-29T14:11:03.057Z,1.60
2022-07-29T14:16:05.221Z,1.60
2022-07-29T14:21:06.864Z,1.38
2022-07-29T14:26:08.815Z,1.60
2022-07-29T14:31:15.272Z,1.92
2022-07-29T14:36:16.954Z,1.67
2022-07-29T14:41:18.790Z,1.50
2022-07-29T14:46:20.721Z,1.98
2022-07-29T14:51:22.338Z,1.77
2022-07-29T14:56:37.030Z,1.55
2022-07-29T15:01:40.388Z,1.80
2022-07-29T15:06:42.353Z,2.13
2022-07-29T15:11:44.146Z,1.90
2022-07-29T15:16:46.613Z,2.08
2022-07-29T15:21:51.061Z,1.70
2022-07-29T15:26:52.751Z,3.38
2022-07-29T15:31:54.909Z,3.38
2022-07-29T15:36:56.605Z,2.30
2022-07-29T15:42:01.132Z,1.80
2022-07-29T15:47:09.021Z,2.50
2022-07-29T15:52:11.079Z,5.05
2022-07-29T15:57:14.412Z,2.78
2022-07-29T16:02:16.097Z,2.20
2022-07-29T16:07:18.168Z,1.95
2022-07-29T16:12:20.135Z,1.80
2022-07-29T16:17:21.905Z,2.30
2022-07-29T16:22:23.562Z,2.10
2022-07-29T16:27:31.363Z,2.17
2022-07-29T16:32:39.872Z,2.17
2022-07-29T16:37:41.578Z,2.10
2022-07-29T16:42:47.370Z,2.15
2022-07-29T16:47:49.295Z,3.03
2022-07-29T16:52:51.794Z,2.00
2022-07-29T16:57:53.475Z,2.38
2022-07-29T17:02:56.115Z,2.15
2022-07-29T17:07:58.439Z,2.05
2022-07-29T17:13:00.933Z,2.00
2022-07-29T17:18:02.973Z,2.20
2022-07-29T17:23:14.781Z,2.15
2022-07-29T17:28:16.368Z,2.10
2022-07-29T17:33:18.413Z,2.35
2022-07-29T17:38:21.658Z,1.92
2022-07-29T17:43:23.453Z,2.78
2022-07-29T17:48:26.492Z,2.00
2022-07-29T17:53:28.403Z,1.90
2022-07-29T17:58:31.075Z,2.08
2022-07-29T18:03:32.850Z,3.05
2022-07-29T18:08:34.963Z,2.95
2022-07-29T18:13:37.105Z,2.50
2022-07-29T18:18:38.797Z,2.30
2022-07-29T18:23:40.644Z,2.75
2022-07-29T18:28:42.292Z,2.83
2022-07-29T18:33:44.145Z,3.03
2022-07-29T18:38:45.974Z,3.20
2022-07-29T18:43:47.686Z,2.50
2022-07-29T18:48:50.013Z,2.70
2022-07-29T18:53:52.431Z,2.88
2022-07-29T18:58:55.149Z,2.47
2022-07-29T19:03:56.758Z,2.50
2022-07-29T19:08:58.518Z,2.65
2022-07-29T19:14:00.126Z,3.15
2022-07-29T19:19:02.040Z,2.10
2022-07-29T19:24:06.680Z,1.88
2022-07-29T19:29:10.049Z,3.13
2022-07-29T19:34:11.998Z,3.10
2022-07-29T19:39:15.328Z,2.78
2022-07-29T19:44:17.205Z,2.13
2022-07-29T19:49:18.794Z,2.38
2022-07-29T19:54:20.680Z,2.33
2022-07-29T19:59:23.875Z,2.42
2022-07-29T20:04:26.217Z,2.67
2022-07-29T20:09:28.114Z,2.40
2022-07-29T20:14:29.859Z,2.85
2022-07-29T20:19:33.069Z,2.90
2022-07-29T20:24:34.752Z,2.60
2022-07-29T20:29:37.504Z,3.17
2022-07-29T20:34:41.283Z,2.88
2022-07-29T20:39:43.025Z,3.33
2022-07-29T20:44:44.686Z,2.88
2022-07-29T20:49:46.337Z,2.70
2022-07-29T20:54:48.814Z,3.08
2022-07-29T20:59:50.415Z,2.60
2022-07-29T21:04:52.143Z,2.95
2022-07-29T21:09:53.746Z,3.30
2022-07-29T21:14:55.791Z,2.90
2022-07-29T21:19:57.796Z,3.13
2022-07-29T21:24:59.535Z,3.40
2022-07-29T21:30:01.209Z,3.08
2022-07-29T21:35:03.436Z,3.30
2022-07-29T21:40:16.944Z,3.17
2022-07-29T21:45:18.650Z,3.17
2022-07-29T21:50:20.304Z,3.88
2022-07-29T21:55:22.086Z,3.60
2022-07-29T22:00:26.665Z,3.55
2022-07-29T22:05:29.499Z,3.53
2022-07-29T22:10:31.326Z,3.20
2022-07-29T22:15:33.340Z,3.08
2022-07-29T22:20:35.535Z,3.40
2022-07-29T22:25:37.327Z,3.10
2022-07-29T22:30:38.927Z,4.18
2022-07-29T22:35:40.493Z,3.58
2022-07-29T22:40:42.048Z,3.25
2022-07-29T22:45:45.469Z,3.70
2022-07-29T22:50:47.291Z,3.78
2022-07-29T22:55:49.523Z,3.90
2022-07-29T23:00:51.422Z,4.25
2022-07-29T23:05:53.167Z,4.13
2022-07-29T23:10:55.114Z,3.65
2022-07-29T23:15:56.777Z,3.13
2022-07-29T23:20:58.669Z,3.33
2022-07-29T23:26:00.813Z,3.08
2022-07-29T23:31:02.442Z,3.75
2022-07-29T23:36:04.207Z,3.63
2022-07-29T23:41:08.929Z,3.92
2022-07-29T23:46:10.706Z,3.88
2022-07-29T23:51:13.572Z,3.75
2022-07-29T23:56:15.181Z,3.58
